createdAt,value
2022-11-30T00:01:08.558Z,29.60
2022-11-30T00:03:35.504Z,30.20
2022-11-30T00:06:11.312Z,30.00
2022-11-30T00:08:38.686Z,29.80
2022-11-30T00:11:13.712Z,29.70
2022-11-30T00:13:40.977Z,29.80
2022-11-30T00:16:08.573Z,29.80
2022-11-30T00:18:36.272Z,30.10
2022-11-30T00:21:05.166Z,30.40
2022-11-30T00:23:36.822Z,30.20
2022-11-30T00:26:05.292Z,30.60
2022-11-30T00:28:33.039Z,30.50
2022-11-30T00:31:05.203Z,29.80
2022-11-30T00:33:36.984Z,29.60
2022-11-30T00:36:07.111Z,29.30
2022-11-30T00:38:34.339Z,28.70
2022-11-30T00:41:01.565Z,28.50
2022-11-30T00:43:28.985Z,29.30
2022-11-30T00:45:55.948Z,29.40
2022-11-30T00:48:22.992Z,29.60
2022-11-30T00:50:51.116Z,29.70
2022-11-30T00:53:19.491Z,29.90
2022-11-30T00:55:47.212Z,30.00
2022-11-30T00:58:14.718Z,30.20
2022-11-30T01:00:42.235Z,30.00
2022-11-30T01:03:09.300Z,29.40
2022-11-30T01:05:36.950Z,30.00
2022-11-30T01:08:05.949Z,30.30
2022-11-30T01:10:34.195Z,30.00
2022-11-30T01:13:01.358Z,29.80
2022-11-30T01:15:28.391Z,29.50
2022-11-30T01:17:55.255Z,29.30
2022-11-30T01:20:22.468Z,29.80
2022-11-30T01:22:49.335Z,29.80
2022-11-30T01:25:16.441Z,30.50
2022-11-30T01:27:43.343Z,31.10
2022-11-30T01:30:11.057Z,31.50
2022-11-30T01:32:37.927Z,31.60
2022-11-30T01:35:05.001Z,31.20
2022-11-30T01:37:31.881Z,30.90
2022-11-30T01:39:58.938Z,30.20
2022-11-30T01:42:26.119Z,30.60
2022-11-30T01:44:58.394Z,30.50
2022-11-30T01:47:36.687Z,30.20
2022-11-30T01:50:08.685Z,29.90
2022-11-30T01:52:45.462Z,29.80
2022-11-30T01:55:15.686Z,29.80
2022-11-30T01:58:04.898Z,29.90
2022-11-30T02:00:32.202Z,29.80
2022-11-30T02:03:07.208Z,29.40
2022-11-30T02:05:38.197Z,29.40
2022-11-30T02:08:06.639Z,29.60
2022-11-30T02:10:37.837Z,29.80
2022-11-30T02:13:04.596Z,30.10
2022-11-30T02:15:40.351Z,30.50
2022-11-30T02:18:20.429Z,30.50
2022-11-30T02:21:10.382Z,30.90
2022-11-30T02:24:08.074Z,31.20
2022-11-30T02:26:59.822Z,31.30
2022-11-30T02:29:42.901Z,31.70
2022-11-30T02:32:38.879Z,31.70
2022-11-30T02:35:07.942Z,30.90
2022-11-30T02:37:37.178Z,30.30
2022-11-30T02:40:14.021Z,30.80
2022-11-30T02:42:40.901Z,30.60
2022-11-30T02:45:09.484Z,30.60
2022-11-30T02:47:48.861Z,30.20
2022-11-30T02:50:27.340Z,30.10
2022-11-30T02:52:55.226Z,30.30
2022-11-30T02:55:22.860Z,29.60
2022-11-30T02:57:49.760Z,29.70
2022-11-30T03:00:17.151Z,29.80
2022-11-30T03:02:44.098Z,29.70
2022-11-30T03:05:11.159Z,29.80
2022-11-30T03:07:38.236Z,29.70
2022-11-30T03:10:06.570Z,29.60
2022-11-30T03:12:33.661Z,29.80
2022-11-30T03:15:00.560Z,30.00
2022-11-30T03:17:27.866Z,30.60
2022-11-30T03:19:54.819Z,29.90
2022-11-30T03:22:21.742Z,30.00
2022-11-30T03:24:48.922Z,29.70
2022-11-30T03:27:16.061Z,29.80
2022-11-30T03:29:43.085Z,29.80
2022-11-30T03:32:10.141Z,29.90
2022-11-30T03:34:37.087Z,30.50
2022-11-30T03:37:04.042Z,30.40
2022-11-30T03:39:31.204Z,30.20
2022-11-30T03:41:58.096Z,30.30
2022-11-30T03:44:25.002Z,30.60
2022-11-30T03:46:51.948Z,30.60
2022-11-30T03:49:18.862Z,30.90
2022-11-30T03:51:45.708Z,30.40
2022-11-30T03:54:12.649Z,30.90
2022-11-30T03:56:39.569Z,31.20
2022-11-30T03:59:06.457Z,31.10
2022-11-30T04:01:33.551Z,31.40
2022-11-30T04:04:00.539Z,31.30
2022-11-30T04:06:27.419Z,31.60
2022-11-30T04:08:54.725Z,31.60
2022-11-30T04:11:21.780Z,31.40
2022-11-30T04:13:48.674Z,30.60
2022-11-30T04:16:15.717Z,31.20
2022-11-30T04:18:42.691Z,31.20
2022-11-30T04:21:10.860Z,31.60
2022-11-30T04:23:39.607Z,31.10
2022-11-30T04:26:10.970Z,31.10
2022-11-30T04:28:37.900Z,31.60
2022-11-30T04:31:05.189Z,31.90
2022-11-30T04:33:32.181Z,31.90
2022-11-30T04:36:02.390Z,32.00
2022-11-30T04:38:29.858Z,32.10
2022-11-30T04:40:57.067Z,32.10
2022-11-30T04:43:25.051Z,31.90
2022-11-30T04:45:52.388Z,31.50
2022-11-30T04:48:20.311Z,31.90
2022-11-30T04:50:47.441Z,32.00
2022-11-30T04:53:14.468Z,32.00
2022-11-30T04:55:41.435Z,31.90
2022-11-30T04:58:08.390Z,31.90
2022-11-30T05:00:36.340Z,32.10
2022-11-30T05:03:03.452Z,32.30
2022-11-30T05:05:30.355Z,32.40
2022-11-30T05:07:58.560Z,32.60
2022-11-30T05:10:26.972Z,32.30
2022-11-30T05:12:54.404Z,32.50
2022-11-30T05:15:21.420Z,32.60
2022-11-30T05:17:48.641Z,32.70
2022-11-30T05:20:15.726Z,32.70
2022-11-30T05:22:42.935Z,32.60
2022-11-30T05:25:10.288Z,32.10
2022-11-30T05:27:38.038Z,31.80
2022-11-30T05:30:05.897Z,31.90
2022-11-30T05:32:33.156Z,32.00
2022-11-30T05:35:00.137Z,32.20
2022-11-30T05:37:27.071Z,32.10
2022-11-30T05:39:54.027Z,32.00
2022-11-30T05:42:21.511Z,32.10
2022-11-30T05:44:48.629Z,32.20
2022-11-30T05:47:16.479Z,32.30
2022-11-30T05:49:43.659Z,32.30
2022-11-30T05:52:11.001Z,32.10
2022-11-30T05:54:38.005Z,31.90
2022-11-30T05:57:05.525Z,31.90
2022-11-30T05:59:32.475Z,31.90
2022-11-30T06:01:59.527Z,31.90
2022-11-30T06:04:26.586Z,31.70
2022-11-30T06:06:55.744Z,31.60
2022-11-30T06:09:23.385Z,31.90
2022-11-30T06:11:50.762Z,32.10
2022-11-30T06:14:18.107Z,32.00
2022-11-30T06:16:45.330Z,32.10
2022-11-30T06:19:12.668Z,32.20
2022-11-30T06:21:39.581Z,32.10
2022-11-30T06:24:07.128Z,32.30
2022-11-30T06:26:34.246Z,32.00
2022-11-30T06:29:01.125Z,31.90
2022-11-30T06:31:28.147Z,31.60
2022-11-30T06:33:59.181Z,31.60
2022-11-30T06:36:32.700Z,31.40
2022-11-30T06:39:02.924Z,31.30
2022-11-30T06:41:29.934Z,31.40
2022-11-30T06:43:57.181Z,31.60
2022-11-30T06:46:24.172Z,31.40
2022-11-30T06:48:51.303Z,31.50
2022-11-30T06:51:18.468Z,31.40
2022-11-30T06:53:46.273Z,30.90
2022-11-30T06:56:13.406Z,31.00
2022-11-30T06:58:41.035Z,30.90
2022-11-30T07:01:10.570Z,30.50
2022-11-30T07:03:38.248Z,30.60
2022-11-30T07:06:13.266Z,30.40
2022-11-30T07:08:41.149Z,30.30
2022-11-30T07:11:09.054Z,30.30
2022-11-30T07:13:36.429Z,29.60
2022-11-30T07:16:08.940Z,29.30
2022-11-30T07:18:36.198Z,28.70
2022-11-30T07:21:04.961Z,28.90
2022-11-30T07:23:55.977Z,29.40
2022-11-30T07:26:24.622Z,29.10
2022-11-30T07:28:55.359Z,29.60
2022-11-30T07:31:30.790Z,29.20
2022-11-30T07:34:02.988Z,28.60
2022-11-30T07:36:31.828Z,28.00
2022-11-30T07:38:59.254Z,28.70
2022-11-30T07:41:26.688Z,29.50
2022-11-30T07:43:53.691Z,29.90
2022-11-30T07:46:21.078Z,29.90
2022-11-30T07:48:48.191Z,30.20
2022-11-30T07:51:18.255Z,29.70
2022-11-30T07:53:45.509Z,30.20
2022-11-30T07:56:15.450Z,29.50
2022-11-30T07:58:43.223Z,29.10
2022-11-30T08:01:12.528Z,28.60
2022-11-30T08:03:39.565Z,28.40
2022-11-30T08:06:12.403Z,28.90
2022-11-30T08:08:41.910Z,29.00
2022-11-30T08:11:10.999Z,28.70
2022-11-30T08:13:38.264Z,28.60
2022-11-30T08:16:13.587Z,28.30
2022-11-30T08:18:41.617Z,28.10
2022-11-30T08:21:11.127Z,27.10
2022-11-30T08:23:41.462Z,26.80
2022-11-30T08:26:14.825Z,27.00
2022-11-30T08:28:42.878Z,27.90
2022-11-30T08:31:13.174Z,28.20
2022-11-30T08:33:40.549Z,28.70
2022-11-30T08:36:18.391Z,28.40
2022-11-30T08:38:46.485Z,28.10
2022-11-30T08:41:16.089Z,28.80
2022-11-30T08:43:43.363Z,28.80
2022-11-30T08:46:35.154Z,28.00
2022-11-30T08:52:15.845Z,28.30
2022-11-30T08:54:35.267Z,29.20
2022-11-30T08:57:02.172Z,28.60
2022-11-30T08:59:32.215Z,28.40
2022-11-30T09:01:59.148Z,27.90
2022-11-30T09:04:26.073Z,27.90
2022-11-30T09:06:52.944Z,28.40
2022-11-30T09:09:19.907Z,28.60
2022-11-30T09:11:46.969Z,28.40
2022-11-30T09:14:14.050Z,28.60
2022-11-30T09:16:40.953Z,28.30
2022-11-30T09:19:07.846Z,28.10
2022-11-30T09:21:34.847Z,27.70
2022-11-30T09:24:01.854Z,28.20
2022-11-30T09:26:28.852Z,28.60
2022-11-30T09:28:55.820Z,28.30
2022-11-30T09:31:24.940Z,28.80
2022-11-30T09:33:52.577Z,29.30
2022-11-30T09:36:21.725Z,28.90
2022-11-30T09:38:49.539Z,29.00
2022-11-30T09:41:34.493Z,28.90
2022-11-30T09:44:20.056Z,29.10
2022-11-30T09:46:50.868Z,29.00
2022-11-30T09:49:18.937Z,29.00
2022-11-30T09:51:47.630Z,28.40
2022-11-30T09:54:35.518Z,28.50
2022-11-30T09:57:27.540Z,28.10
2022-11-30T10:00:15.531Z,28.60
2022-11-30T10:02:43.094Z,29.20
2022-11-30T10:05:25.401Z,29.60
2022-11-30T10:08:22.922Z,29.40
2022-11-30T10:11:10.347Z,29.50
2022-11-30T10:13:55.730Z,29.60
2022-11-30T10:16:41.953Z,28.70
2022-11-30T10:19:24.375Z,28.90
2022-11-30T10:22:18.580Z,29.40
2022-11-30T10:25:12.046Z,28.80
2022-11-30T10:27:56.632Z,28.30
2022-11-30T10:30:25.692Z,28.30
2022-11-30T10:32:55.484Z,28.10
2022-11-30T10:35:41.489Z,27.90
2022-11-30T10:38:33.692Z,28.70
2022-11-30T10:41:08.652Z,28.70
2022-11-30T10:43:44.604Z,29.20
2022-11-30T10:46:38.303Z,29.80
2022-11-30T10:49:08.179Z,30.80
2022-11-30T10:51:38.438Z,30.40
2022-11-30T10:54:15.449Z,29.90
2022-11-30T10:56:43.244Z,30.10
2022-11-30T10:59:33.931Z,30.00
2022-11-30T11:02:03.255Z,30.60
2022-11-30T11:04:30.232Z,30.60
2022-11-30T11:07:00.173Z,29.80
2022-11-30T11:09:29.816Z,29.60
2022-11-30T11:12:16.685Z,29.40
2022-11-30T11:14:43.676Z,30.20
2022-11-30T11:17:19.450Z,30.50
2022-11-30T11:19:48.209Z,30.90
2022-11-30T11:22:30.958Z,30.50
2022-11-30T11:25:12.106Z,30.10
2022-11-30T11:27:44.632Z,29.90
2022-11-30T11:30:27.207Z,29.80
2022-11-30T11:33:11.977Z,29.90
2022-11-30T11:35:42.036Z,29.70
2022-11-30T11:38:25.412Z,29.60
2022-11-30T11:41:21.388Z,30.10
2022-11-30T11:44:00.945Z,29.60
2022-11-30T11:46:30.137Z,29.80
2022-11-30T11:49:06.581Z,29.70
2022-11-30T11:51:39.694Z,29.90
2022-11-30T11:54:12.613Z,30.50
2022-11-30T11:56:39.805Z,30.60
2022-11-30T11:59:15.492Z,30.60
2022-11-30T12:02:05.801Z,30.50
2022-11-30T12:05:04.919Z,30.70
2022-11-30T12:07:52.647Z,31.40
2022-11-30T12:10:52.309Z,31.60
2022-11-30T12:13:39.850Z,31.70
2022-11-30T12:16:15.773Z,32.30
2022-11-30T12:19:01.191Z,32.70
2022-11-30T12:21:49.696Z,32.50
2022-11-30T12:24:42.407Z,32.70
2022-11-30T12:27:27.773Z,32.60
2022-11-30T12:30:06.433Z,31.60
2022-11-30T12:32:52.345Z,31.80
2022-11-30T12:35:49.608Z,31.20
2022-11-30T12:38:38.654Z,31.60
2022-11-30T12:41:17.307Z,31.20
2022-11-30T12:44:17.145Z,31.30
2022-11-30T12:47:00.942Z,31.50
2022-11-30T12:49:53.209Z,31.70
2022-11-30T12:52:23.168Z,31.70
2022-11-30T12:55:02.005Z,31.90
2022-11-30T12:57:59.949Z,32.00
2022-11-30T13:00:38.157Z,32.30
2022-11-30T13:03:28.253Z,31.90
2022-11-30T13:06:00.420Z,32.00
2022-11-30T13:08:49.322Z,31.60
2022-11-30T13:11:21.463Z,31.10
2022-11-30T13:13:57.638Z,31.60
2022-11-30T13:16:25.602Z,32.10
2022-11-30T13:19:01.700Z,32.20
2022-11-30T13:21:40.355Z,32.00
2022-11-30T13:24:42.505Z,31.80
2022-11-30T13:27:19.386Z,31.80
2022-11-30T13:29:51.771Z,31.70
2022-11-30T13:32:55.262Z,31.70
2022-11-30T13:35:33.189Z,31.30
2022-11-30T13:38:36.233Z,31.50
2022-11-30T13:41:01.040Z,31.70
2022-11-30T13:43:50.416Z,31.50
2022-11-30T13:46:22.176Z,31.60
2022-11-30T13:48:49.971Z,31.50
2022-11-30T13:51:37.988Z,31.60
2022-11-30T13:54:42.210Z,31.40
2022-11-30T13:57:27.653Z,31.30
2022-11-30T14:00:02.111Z,31.20
2022-11-30T14:02:40.991Z,31.10
2022-11-30T14:05:16.827Z,31.20
2022-11-30T14:07:53.059Z,31.10
2022-11-30T14:10:38.311Z,30.60
2022-11-30T14:13:25.125Z,30.50
2022-11-30T14:16:01.910Z,30.20
2022-11-30T14:18:41.198Z,29.40
2022-11-30T14:21:34.754Z,29.60
2022-11-30T14:24:14.626Z,29.90
2022-11-30T14:26:46.160Z,29.60
2022-11-30T14:29:27.542Z,30.10
2022-11-30T14:32:22.254Z,30.30
2022-11-30T14:34:52.334Z,29.60
2022-11-30T14:37:23.006Z,29.80
2022-11-30T14:39:50.975Z,30.40
2022-11-30T14:42:24.744Z,29.90
2022-11-30T14:44:52.016Z,29.50
2022-11-30T14:47:33.520Z,29.40
2022-11-30T14:50:03.131Z,29.80
2022-11-30T14:52:38.938Z,29.10
2022-11-30T14:55:14.552Z,29.20
2022-11-30T14:57:49.766Z,29.20
2022-11-30T15:00:20.452Z,29.20
2022-11-30T15:02:48.491Z,29.60
2022-11-30T15:05:27.428Z,29.20
2022-11-30T15:07:54.788Z,29.00
2022-11-30T15:10:33.205Z,29.80
2022-11-30T15:13:01.486Z,29.40
2022-11-30T15:15:31.259Z,29.10
2022-11-30T15:18:21.062Z,29.20
2022-11-30T15:21:02.531Z,28.90
2022-11-30T15:23:29.601Z,29.40
2022-11-30T15:26:01.480Z,28.70
2022-11-30T15:28:34.405Z,28.70
2022-11-30T15:31:06.570Z,28.40
2022-11-30T15:33:43.025Z,28.40
2022-11-30T15:36:28.001Z,28.70
2022-11-30T15:38:57.397Z,28.60
2022-11-30T15:41:25.833Z,28.60
2022-11-30T15:43:55.535Z,28.20
2022-11-30T15:46:42.706Z,27.60
2022-11-30T15:49:13.101Z,27.20
2022-11-30T15:51:42.511Z,27.60
2022-11-30T15:54:09.543Z,27.20
2022-11-30T15:56:36.745Z,26.70
2022-11-30T15:59:14.452Z,27.10
2022-11-30T16:02:14.389Z,27.50
2022-11-30T16:05:12.376Z,26.80
2022-11-30T16:07:54.527Z,26.90
2022-11-30T16:10:32.906Z,27.30
2022-11-30T16:13:00.088Z,28.50
2022-11-30T16:15:29.797Z,27.70
2022-11-30T16:18:00.372Z,27.10
2022-11-30T16:20:28.604Z,27.50
2022-11-30T16:22:55.577Z,27.40
2022-11-30T16:25:24.997Z,27.60
2022-11-30T16:27:52.374Z,28.00
2022-11-30T16:30:21.846Z,27.40
2022-11-30T16:32:49.602Z,26.60
2022-11-30T16:35:44.269Z,27.10
2022-11-30T16:38:11.230Z,27.30
2022-11-30T16:40:39.279Z,27.30
2022-11-30T16:43:09.855Z,27.90
2022-11-30T16:45:38.091Z,28.10
2022-11-30T16:48:05.524Z,27.70
2022-11-30T16:50:34.744Z,27.80
2022-11-30T16:53:02.572Z,27.40
2022-11-30T16:55:32.456Z,27.50
2022-11-30T16:57:59.330Z,28.20
2022-11-30T17:00:26.348Z,28.20
2022-11-30T17:03:20.751Z,28.00
2022-11-30T17:05:48.253Z,27.40
2022-11-30T17:08:15.220Z,27.90
2022-11-30T17:10:42.485Z,27.00
2022-11-30T17:13:13.976Z,27.00
2022-11-30T17:15:41.049Z,27.30
2022-11-30T17:18:07.914Z,27.20
2022-11-30T17:20:36.286Z,27.90
2022-11-30T17:23:05.119Z,26.80
2022-11-30T17:25:32.295Z,27.10
2022-11-30T17:28:00.186Z,27.70
2022-11-30T17:30:27.901Z,27.10
2022-11-30T17:32:55.060Z,28.20
2022-11-30T17:35:21.999Z,27.90
2022-11-30T17:37:48.892Z,28.10
2022-11-30T17:40:16.312Z,28.60
2022-11-30T17:42:43.617Z,29.10
2022-11-30T17:45:10.709Z,29.70
2022-11-30T17:47:38.071Z,29.90
2022-11-30T17:50:07.326Z,28.70
2022-11-30T17:52:34.278Z,28.80
2022-11-30T17:55:03.405Z,29.00
2022-11-30T17:57:30.467Z,29.00
2022-11-30T17:59:57.422Z,28.40
2022-11-30T18:02:24.595Z,27.80
2022-11-30T18:04:52.692Z,27.60
2022-11-30T18:07:20.171Z,27.80
2022-11-30T18:09:47.433Z,27.80
2022-11-30T18:12:14.335Z,27.60
2022-11-30T18:14:41.262Z,27.10
2022-11-30T18:17:08.309Z,27.20
2022-11-30T18:19:35.271Z,27.20
2022-11-30T18:22:02.347Z,26.70
2022-11-30T18:24:29.310Z,27.60
2022-11-30T18:26:56.390Z,27.80
2022-11-30T18:29:23.276Z,27.40
2022-11-30T18:31:51.370Z,27.40
2022-11-30T18:34:18.450Z,28.20
2022-11-30T18:36:45.496Z,28.70
2022-11-30T18:39:12.799Z,27.70
2022-11-30T18:41:39.882Z,28.00
2022-11-30T18:44:07.007Z,27.90
2022-11-30T18:46:34.130Z,27.10
2022-11-30T18:49:03.725Z,27.60
2022-11-30T18:51:31.557Z,28.00
2022-11-30T18:54:04.417Z,28.50
2022-11-30T18:56:35.047Z,28.70
2022-11-30T18:59:14.209Z,29.00
2022-11-30T19:01:41.619Z,29.00
2022-11-30T19:04:11.517Z,28.40
2022-11-30T19:06:40.654Z,27.80
2022-11-30T19:09:14.157Z,28.10
2022-11-30T19:11:42.704Z,28.30
2022-11-30T19:14:13.615Z,28.00
2022-11-30T19:16:40.983Z,28.00
2022-11-30T19:19:12.664Z,27.70
2022-11-30T19:21:40.215Z,27.30
2022-11-30T19:24:07.704Z,27.30
2022-11-30T19:26:34.974Z,28.00
2022-11-30T19:29:04.146Z,27.90
2022-11-30T19:31:31.117Z,28.30
2022-11-30T19:33:58.171Z,28.30
2022-11-30T19:36:27.183Z,28.50
2022-11-30T19:38:54.857Z,27.90
2022-11-30T19:41:21.961Z,27.80
2022-11-30T19:43:58.138Z,27.90
2022-11-30T19:46:28.520Z,27.70
2022-11-30T19:48:58.466Z,28.10
2022-11-30T19:51:25.364Z,28.00
2022-11-30T19:54:01.073Z,28.00
2022-11-30T19:56:31.465Z,27.70
2022-11-30T19:59:04.507Z,28.00
2022-11-30T20:01:33.708Z,28.20
2022-11-30T20:04:01.051Z,27.70
2022-11-30T20:06:33.850Z,28.30
2022-11-30T20:09:01.590Z,28.00
2022-11-30T20:11:28.671Z,28.30
2022-11-30T20:13:55.875Z,28.20
2022-11-30T20:16:36.566Z,29.00
2022-11-30T20:19:03.601Z,29.40
2022-11-30T20:21:36.049Z,29.70
2022-11-30T20:24:09.504Z,29.50
2022-11-30T20:26:39.848Z,29.50
2022-11-30T20:29:11.596Z,30.10
2022-11-30T20:31:38.841Z,29.60
2022-11-30T20:34:07.124Z,28.30
2022-11-30T20:36:35.477Z,27.60
2022-11-30T20:39:03.197Z,27.80
2022-11-30T20:41:30.643Z,27.90
2022-11-30T20:43:58.351Z,27.90
2022-11-30T20:46:31.044Z,28.10
2022-11-30T20:48:59.350Z,27.90
2022-11-30T20:51:32.714Z,27.70
2022-11-30T20:54:02.738Z,28.00
2022-11-30T20:56:30.412Z,27.90
2022-11-30T20:59:01.354Z,27.80
2022-11-30T21:01:28.473Z,28.50
2022-11-30T21:03:55.450Z,28.50
2022-11-30T21:06:22.599Z,29.30
2022-11-30T21:08:49.482Z,29.30
2022-11-30T21:11:19.876Z,29.10
2022-11-30T21:13:49.171Z,28.60
2022-11-30T21:16:27.169Z,27.70
2022-11-30T21:18:56.106Z,28.20
2022-11-30T21:21:25.736Z,28.70
2022-11-30T21:23:53.407Z,28.00
2022-11-30T21:26:29.984Z,27.60
2022-11-30T21:29:07.172Z,28.30
2022-11-30T21:31:34.747Z,28.40
2022-11-30T21:34:01.843Z,29.00
2022-11-30T21:36:28.750Z,29.30
2022-11-30T21:39:04.557Z,29.70
2022-11-30T21:41:33.203Z,29.70
2022-11-30T21:44:00.080Z,29.00
2022-11-30T21:46:27.017Z,28.40
2022-11-30T21:48:53.975Z,28.60
2022-11-30T21:51:23.682Z,29.10
2022-11-30T21:53:52.958Z,29.70
2022-11-30T21:56:25.373Z,30.30
2022-11-30T21:58:53.031Z,29.90
2022-11-30T22:01:30.095Z,29.90
2022-11-30T22:03:59.069Z,29.10
2022-11-30T22:06:27.739Z,29.60
2022-11-30T22:08:57.474Z,29.60
2022-11-30T22:11:24.322Z,28.80
2022-11-30T22:13:52.971Z,28.20
2022-11-30T22:16:21.452Z,27.00
2022-11-30T22:18:49.072Z,27.10
2022-11-30T22:21:21.239Z,27.00
2022-11-30T22:23:53.652Z,27.00
2022-11-30T22:26:28.510Z,27.60
2022-11-30T22:29:05.462Z,27.30
2022-11-30T22:31:36.915Z,26.80
2022-11-30T22:34:04.201Z,27.10
2022-11-30T22:36:32.869Z,27.20
2022-11-30T22:39:05.914Z,27.00
2022-11-30T22:41:33.505Z,27.60
2022-11-30T22:44:00.427Z,27.20
2022-11-30T22:46:29.846Z,27.60
2022-11-30T22:49:00.121Z,27.50
2022-11-30T22:51:29.132Z,27.80
2022-11-30T22:53:56.790Z,27.50
2022-11-30T22:56:33.891Z,27.00
2022-11-30T22:59:01.820Z,27.90
2022-11-30T23:01:34.971Z,27.10
2022-11-30T23:04:10.524Z,27.70
2022-11-30T23:06:39.337Z,27.80
2022-11-30T23:09:08.720Z,27.80
2022-11-30T23:11:35.686Z,28.10
2022-11-30T23:14:08.106Z,28.50
2022-11-30T23:16:36.333Z,28.80
2022-11-30T23:19:03.763Z,27.90
2022-11-30T23:21:37.481Z,28.30
2022-11-30T23:24:08.070Z,28.40
2022-11-30T23:26:37.145Z,27.80
2022-11-30T23:29:12.570Z,28.10
2022-11-30T23:31:41.085Z,28.90
2022-11-30T23:34:16.615Z,28.80
2022-11-30T23:36:43.574Z,29.00
2022-11-30T23:39:16.120Z,28.90
2022-11-30T23:41:43.174Z,28.70
2022-11-30T23:44:11.128Z,28.50
2022-11-30T23:46:38.560Z,28.50
2022-11-30T23:49:05.623Z,29.10
2022-11-30T23:51:32.560Z,28.70
2022-11-30T23:53:59.442Z,29.00
2022-11-30T23:56:26.445Z,27.90
2022-11-30T23:58:53.448Z,27.80
